Flight Track Log - Related Links

Times and Time Zones

All times are in EDT time to prevent confusion due to time zone crossing. See the N319EE flight status page for this flight to view local times or setup timezone preferences in your user account.

Time Position Orientation Groundspeed Altitude Reporting Facility
EDT Latitude Longitude Course Direction KTS MPH feet Rate Location/Type
Wed 08:31:27 AM 43.6558 -70.4111 278° West 177 204 3,500  Level Boston Center
Wed 08:32:28 AM 43.6675 -70.4797 283° West 177 204 6,100 2,083 Climbing Boston Center
Wed 08:33:28 AM 43.6789 -70.5397 285° West 177 204 7,700 1,831 Climbing Boston Center
Wed 08:34:26 AM 43.6906 -70.6139 282° West 182 209 9,700 1,627 Climbing Boston Center
Wed 08:35:26 AM 43.7039 -70.6794 286° West 182 209 10,900 1,240 Climbing Boston Center
Wed 08:36:27 AM 43.7178 -70.7711 282° West 214 246 12,200 1,050 Climbing Boston Center
Wed 08:37:26 AM 43.7106 -70.8517 263° West 234 269 13,000 950 Climbing Boston Center
Wed 08:38:27 AM 43.6828 -70.9500 249° West 248 285 14,100 992 Climbing Boston Center
Wed 08:39:27 AM 43.6567 -71.0339 247° West 253 291 15,000 800 Climbing Boston Center
Wed 08:40:27 AM 43.6286 -71.1236 247° West 253 291 15,700 496 Climbing Boston Center
Wed 08:41:28 AM 43.5964 -71.2217 246° West 265 305 16,000 149 Climbing Boston Center
Wed 08:42:28 AM 43.5642 -71.3228 246° West 283 326 16,000  Level Boston Center
Wed 08:43:26 AM 43.5358 -71.4206 248° West 288 331 16,000  Level Boston Center
Wed 08:44:26 AM 43.5033 -71.5183 245° Southwest 288 331 16,000  Level Boston Center
Wed 08:45:27 AM 43.4728 -71.6161 247° West 288 331 16,000  Level Boston Center
Wed 08:46:27 AM 43.4422 -71.7108 246° West 277 319 16,000  Level Boston Center
Wed 08:47:28 AM 43.4136 -71.8056 247° West 277 319 16,000  Level Boston Center
Wed 08:48:26 AM 43.3808 -71.9003 245° Southwest 277 319 16,000  Level Boston Center
Wed 08:49:26 AM 43.3500 -71.9975 246° West 277 319 16,000  Level Boston Center
Wed 08:50:26 AM 43.3189 -72.0947 246° West 277 319 16,000  Level Boston Center
Wed 08:51:28 AM 43.2881 -72.1947 247° West 277 319 16,000  Level Boston Center
Wed 08:52:26 AM 43.2569 -72.2889 246° West 277 319 16,000  Level Boston Center
Wed 08:53:26 AM 43.2256 -72.3858 246° West 277 319 16,000  Level Boston Center
Wed 08:54:27 AM 43.1922 -72.4856 245° Southwest 277 319 16,000  Level Boston Center
Wed 08:55:28 AM 43.1589 -72.5825 245° Southwest 277 319 16,000  Level Boston Center
Wed 08:56:26 AM 43.1294 -72.6819 248° West 277 319 16,000  Level Boston Center
Wed 08:57:27 AM 43.0981 -72.7728 245° Southwest 282 325 16,000  Level Boston Center
Wed 08:58:27 AM 43.0664 -72.8692 246° West 282 325 16,000  Level Boston Center
Wed 08:59:28 AM 43.0328 -72.9683 245° Southwest 282 325 16,000  Level Boston Center
Wed 09:00:28 AM 42.9969 -73.0647 243° Southwest 282 325 16,000  Level Boston Center
Wed 09:01:26 AM 42.9608 -73.1750 246° West 282 325 16,000  Level Boston Center
Wed 09:02:27 AM 42.9308 -73.2625 245° Southwest 282 325 16,000  Level Boston Center
Wed 09:03:27 AM 42.8947 -73.3697 245° Southwest 282 325 16,000  Level Boston Center
Wed 09:04:27 AM 42.8669 -73.4569 247° West 282 325 16,000  Level Boston Center
Wed 09:05:28 AM 42.8283 -73.5639 244° Southwest 282 325 16,000  Level Boston Center
Wed 09:06:26 AM 42.8003 -73.6483 246° West 282 325 16,000  Level Boston Center
Wed 09:07:26 AM 42.7681 -73.7553 248° West 282 325 16,000  Level Boston Center
Wed 09:08:27 AM 42.7375 -73.8536 247° West 288 331 16,000  Level Boston Center
Wed 09:09:27 AM 42.7156 -73.9547 254° West 288 331 16,000  Level Boston Center
Wed 09:10:26 AM 42.6892 -74.0558 250° West 288 331 16,000  Level Boston Center
Wed 09:11:26 AM 42.6603 -74.1653 250° West 283 326 16,000  Level Boston Center
Wed 09:12:27 AM 42.6381 -74.2578 252° West 288 331 16,000  Level Boston Center
Wed 09:13:27 AM 42.6111 -74.3725 252° West 288 331 16,000  Level Boston Center
Wed 09:14:29 AM 42.5886 -74.4650 252° West 288 331 16,000  Level Boston Center
Wed 09:15:26 AM 42.5617 -74.5769 252° West 288 331 16,000  Level Boston Center
Wed 09:16:27 AM 42.5389 -74.6692 251° West 283 326 16,000  Level Boston Center
Wed 09:17:28 AM 42.5117 -74.7808 252° West 288 331 16,000 -295 Level Boston Center
Wed 09:18:29 AM 42.4867 -74.8783 251° West 288 331 15,400 -864 Descending Boston Center
Wed 09:19:26 AM 42.4614 -74.9900 253° West 300 345 14,300 -1,282 Descending Boston Center
Wed 09:20:26 AM 42.4339 -75.1014 252° West 313 360 12,900 -1,400 Descending Boston Center
Wed 09:22:00 AM 42.3862 -75.2415 245° Southwest  Level FlightAware Approximate
Wed 09:29:00 AM 42.2204 -75.8889 246° West  Level FlightAware Approximate
Wed 09:30:00 AM 42.2000 -75.9667 270° West  Level FlightAware Approximate
Wed 09:31:00 AM 42.2084 -75.9796 270° West  Level Estimated
Wed 09:32:00 AM 42.2084 -75.9796 270° West  Level Estimated
Wed 09:33:00 AM 42.2084 -75.9796 270° West  Level Estimated
Wed 09:34:00 AM 42.2084 -75.9796 270° West  Level Estimated
Wed 09:35:00 AM 42.2084 -75.9796 270° West  Level Estimated
Wed 09:36:00 AM 42.2084 -75.9796 270° West  Level Estimated

Login

Don't have an account? Register now (free) for customized features, flight alerts, and more!